sensor_id;sensor_type;location;lat;lon;timestamp;P1;durP1;ratioP1;P2;durP2;ratioP2
19043;SDS011;9654;52.302;8.120;2022-07-23T00:01:35;8.47;;;6.13;;
19043;SDS011;9654;52.302;8.120;2022-07-23T00:04:02;7.33;;;5.30;;
19043;SDS011;9654;52.302;8.120;2022-07-23T00:06:28;8.70;;;5.70;;
19043;SDS011;9654;52.302;8.120;2022-07-23T00:08:55;8.10;;;5.60;;
19043;SDS011;9654;52.302;8.120;2022-07-23T00:11:22;6.87;;;5.33;;
19043;SDS011;9654;52.302;8.120;2022-07-23T00:13:49;5.90;;;5.30;;
19043;SDS011;9654;52.302;8.120;2022-07-23T00:16:17;7.57;;;5.77;;
19043;SDS011;9654;52.302;8.120;2022-07-23T00:18:43;8.60;;;5.63;;
19043;SDS011;9654;52.302;8.120;2022-07-23T00:21:10;8.17;;;6.27;;
19043;SDS011;9654;52.302;8.120;2022-07-23T00:23:37;6.83;;;5.57;;
19043;SDS011;9654;52.302;8.120;2022-07-23T00:26:04;7.97;;;5.57;;
19043;SDS011;9654;52.302;8.120;2022-07-23T00:28:32;5.57;;;4.67;;
19043;SDS011;9654;52.302;8.120;2022-07-23T00:30:59;5.57;;;5.07;;
19043;SDS011;9654;52.302;8.120;2022-07-23T00:33:27;8.30;;;5.77;;
19043;SDS011;9654;52.302;8.120;2022-07-23T00:35:54;8.07;;;5.93;;
19043;SDS011;9654;52.302;8.120;2022-07-23T00:38:21;8.57;;;5.97;;
19043;SDS011;9654;52.302;8.120;2022-07-23T00:40:48;8.50;;;5.90;;
19043;SDS011;9654;52.302;8.120;2022-07-23T00:43:14;12.03;;;6.10;;
19043;SDS011;9654;52.302;8.120;2022-07-23T00:45:41;10.63;;;5.43;;
19043;SDS011;9654;52.302;8.120;2022-07-23T00:48:08;7.87;;;5.97;;
19043;SDS011;9654;52.302;8.120;2022-07-23T00:50:36;13.00;;;5.50;;
19043;SDS011;9654;52.302;8.120;2022-07-23T00:53:03;9.13;;;5.33;;
19043;SDS011;9654;52.302;8.120;2022-07-23T00:55:30;9.03;;;6.30;;
19043;SDS011;9654;52.302;8.120;2022-07-23T00:57:58;11.03;;;6.33;;
19043;SDS011;9654;52.302;8.120;2022-07-23T01:00:25;12.33;;;6.10;;
19043;SDS011;9654;52.302;8.120;2022-07-23T01:02:52;8.33;;;5.50;;
19043;SDS011;9654;52.302;8.120;2022-07-23T01:05:19;6.17;;;4.73;;
19043;SDS011;9654;52.302;8.120;2022-07-23T01:07:48;9.27;;;6.57;;
19043;SDS011;9654;52.302;8.120;2022-07-23T01:10:15;12.07;;;6.47;;
19043;SDS011;9654;52.302;8.120;2022-07-23T01:12:57;11.23;;;6.30;;
19043;SDS011;9654;52.302;8.120;2022-07-23T01:15:25;9.07;;;5.73;;
19043;SDS011;9654;52.302;8.120;2022-07-23T01:17:51;7.40;;;6.07;;
19043;SDS011;9654;52.302;8.120;2022-07-23T01:20:18;7.50;;;5.70;;
19043;SDS011;9654;52.302;8.120;2022-07-23T01:22:47;8.23;;;5.73;;
19043;SDS011;9654;52.302;8.120;2022-07-23T01:25:14;5.93;;;5.13;;
19043;SDS011;9654;52.302;8.120;2022-07-23T01:27:41;10.03;;;6.20;;
19043;SDS011;9654;52.302;8.120;2022-07-23T01:30:09;8.53;;;6.50;;
19043;SDS011;9654;52.302;8.120;2022-07-23T01:32:36;9.03;;;6.37;;
19043;SDS011;9654;52.302;8.120;2022-07-23T01:35:03;10.63;;;6.47;;
19043;SDS011;9654;52.302;8.120;2022-07-23T01:37:31;9.53;;;5.83;;
19043;SDS011;9654;52.302;8.120;2022-07-23T01:39:59;8.33;;;6.63;;
19043;SDS011;9654;52.302;8.120;2022-07-23T01:42:26;9.27;;;5.87;;
19043;SDS011;9654;52.302;8.120;2022-07-23T01:44:53;9.90;;;6.20;;
19043;SDS011;9654;52.302;8.120;2022-07-23T01:47:19;9.70;;;6.37;;
19043;SDS011;9654;52.302;8.120;2022-07-23T01:49:46;10.17;;;6.60;;
19043;SDS011;9654;52.302;8.120;2022-07-23T01:52:13;8.73;;;6.90;;
19043;SDS011;9654;52.302;8.120;2022-07-23T01:54:40;9.67;;;6.37;;
19043;SDS011;9654;52.302;8.120;2022-07-23T01:57:08;11.13;;;6.30;;
19043;SDS011;9654;52.302;8.120;2022-07-23T01:59:35;10.70;;;6.70;;
19043;SDS011;9654;52.302;8.120;2022-07-23T02:02:02;10.00;;;6.90;;
19043;SDS011;9654;52.302;8.120;2022-07-23T02:04:30;10.87;;;6.70;;
19043;SDS011;9654;52.302;8.120;2022-07-23T02:07:00;11.80;;;6.53;;
19043;SDS011;9654;52.302;8.120;2022-07-23T02:09:27;9.73;;;5.73;;
19043;SDS011;9654;52.302;8.120;2022-07-23T02:11:53;11.73;;;7.13;;
19043;SDS011;9654;52.302;8.120;2022-07-23T02:14:22;10.27;;;7.50;;
19043;SDS011;9654;52.302;8.120;2022-07-23T02:16:48;10.30;;;7.40;;
19043;SDS011;9654;52.302;8.120;2022-07-23T02:19:15;8.73;;;6.77;;
19043;SDS011;9654;52.302;8.120;2022-07-23T02:21:42;8.73;;;6.83;;
19043;SDS011;9654;52.302;8.120;2022-07-23T02:24:09;8.83;;;6.57;;
19043;SDS011;9654;52.302;8.120;2022-07-23T02:26:36;7.40;;;6.53;;
19043;SDS011;9654;52.302;8.120;2022-07-23T02:29:03;10.40;;;6.07;;
19043;SDS011;9654;52.302;8.120;2022-07-23T02:31:32;8.03;;;6.30;;
19043;SDS011;9654;52.302;8.120;2022-07-23T02:33:59;8.93;;;6.57;;
19043;SDS011;9654;52.302;8.120;2022-07-23T02:36:27;6.80;;;5.90;;
19043;SDS011;9654;52.302;8.120;2022-07-23T02:38:54;8.07;;;6.03;;
19043;SDS011;9654;52.302;8.120;2022-07-23T02:41:20;8.07;;;6.37;;
19043;SDS011;9654;52.302;8.120;2022-07-23T02:43:47;13.63;;;7.73;;
19043;SDS011;9654;52.302;8.120;2022-07-23T02:46:14;9.20;;;6.13;;
19043;SDS011;9654;52.302;8.120;2022-07-23T02:48:42;11.57;;;6.90;;
19043;SDS011;9654;52.302;8.120;2022-07-23T02:51:09;9.53;;;7.87;;
19043;SDS011;9654;52.302;8.120;2022-07-23T02:53:36;11.07;;;7.30;;
19043;SDS011;9654;52.302;8.120;2022-07-23T02:56:03;10.83;;;8.20;;
19043;SDS011;9654;52.302;8.120;2022-07-23T02:58:30;12.87;;;8.20;;
19043;SDS011;9654;52.302;8.120;2022-07-23T03:00:57;11.97;;;8.37;;
19043;SDS011;9654;52.302;8.120;2022-07-23T03:03:24;13.40;;;7.70;;
19043;SDS011;9654;52.302;8.120;2022-07-23T03:05:52;12.50;;;7.53;;
19043;SDS011;9654;52.302;8.120;2022-07-23T03:08:19;13.53;;;8.77;;
19043;SDS011;9654;52.302;8.120;2022-07-23T03:10:45;11.13;;;7.73;;
19043;SDS011;9654;52.302;8.120;2022-07-23T03:13:12;11.77;;;7.47;;
19043;SDS011;9654;52.302;8.120;2022-07-23T03:15:39;12.33;;;8.10;;
19043;SDS011;9654;52.302;8.120;2022-07-23T03:18:06;10.63;;;7.53;;
19043;SDS011;9654;52.302;8.120;2022-07-23T03:20:32;12.53;;;8.07;;
19043;SDS011;9654;52.302;8.120;2022-07-23T03:23:00;16.43;;;8.53;;
19043;SDS011;9654;52.302;8.120;2022-07-23T03:25:27;17.37;;;9.13;;
19043;SDS011;9654;52.302;8.120;2022-07-23T03:27:54;13.67;;;9.27;;
19043;SDS011;9654;52.302;8.120;2022-07-23T03:30:21;14.17;;;9.00;;
19043;SDS011;9654;52.302;8.120;2022-07-23T03:32:48;17.73;;;12.50;;
19043;SDS011;9654;52.302;8.120;2022-07-23T03:35:14;19.67;;;11.27;;
19043;SDS011;9654;52.302;8.120;2022-07-23T03:37:41;11.20;;;7.97;;
19043;SDS011;9654;52.302;8.120;2022-07-23T03:40:10;11.30;;;7.63;;
19043;SDS011;9654;52.302;8.120;2022-07-23T03:42:37;10.27;;;8.50;;
19043;SDS011;9654;52.302;8.120;2022-07-23T03:45:06;9.70;;;7.80;;
19043;SDS011;9654;52.302;8.120;2022-07-23T03:47:33;12.13;;;7.70;;
19043;SDS011;9654;52.302;8.120;2022-07-23T03:50:00;10.87;;;7.93;;
19043;SDS011;9654;52.302;8.120;2022-07-23T03:52:27;12.30;;;8.03;;
19043;SDS011;9654;52.302;8.120;2022-07-23T03:54:53;13.77;;;8.33;;
19043;SDS011;9654;52.302;8.120;2022-07-23T03:57:22;12.40;;;8.40;;
19043;SDS011;9654;52.302;8.120;2022-07-23T03:59:48;10.27;;;7.37;;
19043;SDS011;9654;52.302;8.120;2022-07-23T04:02:15;11.73;;;7.83;;
19043;SDS011;9654;52.302;8.120;2022-07-23T04:04:42;11.70;;;7.40;;
19043;SDS011;9654;52.302;8.120;2022-07-23T04:07:08;11.93;;;7.27;;
19043;SDS011;9654;52.302;8.120;2022-07-23T04:09:35;16.97;;;9.40;;
19043;SDS011;9654;52.302;8.120;2022-07-23T04:12:02;11.47;;;8.20;;
19043;SDS011;9654;52.302;8.120;2022-07-23T04:14:31;14.00;;;9.10;;
19043;SDS011;9654;52.302;8.120;2022-07-23T04:17:00;15.07;;;9.13;;
19043;SDS011;9654;52.302;8.120;2022-07-23T04:19:27;12.37;;;9.43;;
19043;SDS011;9654;52.302;8.120;2022-07-23T04:21:55;13.10;;;8.57;;
19043;SDS011;9654;52.302;8.120;2022-07-23T04:24:22;13.67;;;9.17;;
19043;SDS011;9654;52.302;8.120;2022-07-23T04:26:49;15.63;;;9.10;;
19043;SDS011;9654;52.302;8.120;2022-07-23T04:29:15;14.97;;;9.47;;
19043;SDS011;9654;52.302;8.120;2022-07-23T04:31:44;14.30;;;9.63;;
19043;SDS011;9654;52.302;8.120;2022-07-23T04:34:10;14.10;;;9.47;;
19043;SDS011;9654;52.302;8.120;2022-07-23T04:36:37;17.93;;;10.07;;
19043;SDS011;9654;52.302;8.120;2022-07-23T04:39:04;16.07;;;10.13;;
19043;SDS011;9654;52.302;8.120;2022-07-23T04:41:31;12.30;;;9.63;;
19043;SDS011;9654;52.302;8.120;2022-07-23T04:43:59;12.17;;;8.93;;
19043;SDS011;9654;52.302;8.120;2022-07-23T04:46:26;15.47;;;9.50;;
19043;SDS011;9654;52.302;8.120;2022-07-23T04:48:54;13.43;;;8.53;;
19043;SDS011;9654;52.302;8.120;2022-07-23T04:51:21;15.07;;;9.07;;
19043;SDS011;9654;52.302;8.120;2022-07-23T04:53:47;15.83;;;9.33;;
19043;SDS011;9654;52.302;8.120;2022-07-23T04:56:14;13.53;;;9.50;;
19043;SDS011;9654;52.302;8.120;2022-07-23T04:58:41;14.17;;;10.30;;
19043;SDS011;9654;52.302;8.120;2022-07-23T05:01:08;17.47;;;10.37;;
19043;SDS011;9654;52.302;8.120;2022-07-23T05:03:35;12.37;;;9.03;;
19043;SDS011;9654;52.302;8.120;2022-07-23T05:06:03;10.90;;;9.10;;
19043;SDS011;9654;52.302;8.120;2022-07-23T05:08:30;14.60;;;10.00;;
19043;SDS011;9654;52.302;8.120;2022-07-23T05:10:57;13.00;;;9.73;;
19043;SDS011;9654;52.302;8.120;2022-07-23T05:13:24;15.83;;;9.80;;
19043;SDS011;9654;52.302;8.120;2022-07-23T05:15:50;15.87;;;11.20;;
19043;SDS011;9654;52.302;8.120;2022-07-23T05:18:17;18.77;;;10.30;;
19043;SDS011;9654;52.302;8.120;2022-07-23T05:20:44;19.00;;;12.50;;
19043;SDS011;9654;52.302;8.120;2022-07-23T05:23:12;21.83;;;14.83;;
19043;SDS011;9654;52.302;8.120;2022-07-23T05:25:39;21.30;;;13.60;;
19043;SDS011;9654;52.302;8.120;2022-07-23T05:28:06;23.80;;;14.13;;
19043;SDS011;9654;52.302;8.120;2022-07-23T05:30:33;27.10;;;16.10;;
19043;SDS011;9654;52.302;8.120;2022-07-23T05:33:00;25.20;;;15.27;;
19043;SDS011;9654;52.302;8.120;2022-07-23T05:35:27;26.53;;;16.33;;
19043;SDS011;9654;52.302;8.120;2022-07-23T05:37:53;26.17;;;15.03;;
19043;SDS011;9654;52.302;8.120;2022-07-23T05:40:22;40.70;;;21.07;;
19043;SDS011;9654;52.302;8.120;2022-07-23T05:42:48;35.80;;;21.70;;
19043;SDS011;9654;52.302;8.120;2022-07-23T05:45:15;30.73;;;17.93;;
19043;SDS011;9654;52.302;8.120;2022-07-23T05:47:42;22.27;;;14.23;;
19043;SDS011;9654;52.302;8.120;2022-07-23T05:50:11;20.67;;;12.83;;
19043;SDS011;9654;52.302;8.120;2022-07-23T05:52:39;16.13;;;11.60;;
19043;SDS011;9654;52.302;8.120;2022-07-23T05:55:07;18.87;;;13.13;;
19043;SDS011;9654;52.302;8.120;2022-07-23T05:57:36;21.93;;;12.57;;
19043;SDS011;9654;52.302;8.120;2022-07-23T06:00:04;18.67;;;12.30;;
19043;SDS011;9654;52.302;8.120;2022-07-23T06:02:32;19.90;;;12.53;;
19043;SDS011;9654;52.302;8.120;2022-07-23T06:04:59;20.10;;;12.03;;
19043;SDS011;9654;52.302;8.120;2022-07-23T06:07:26;20.00;;;11.23;;
19043;SDS011;9654;52.302;8.120;2022-07-23T06:09:52;16.87;;;10.87;;
19043;SDS011;9654;52.302;8.120;2022-07-23T06:12:19;13.50;;;9.53;;
19043;SDS011;9654;52.302;8.120;2022-07-23T06:14:47;15.80;;;10.33;;
19043;SDS011;9654;52.302;8.120;2022-07-23T06:17:14;14.87;;;10.33;;
19043;SDS011;9654;52.302;8.120;2022-07-23T06:19:41;13.70;;;9.37;;
19043;SDS011;9654;52.302;8.120;2022-07-23T06:22:08;10.70;;;8.27;;
19043;SDS011;9654;52.302;8.120;2022-07-23T06:24:35;14.10;;;8.50;;
19043;SDS011;9654;52.302;8.120;2022-07-23T06:27:02;13.93;;;8.63;;
19043;SDS011;9654;52.302;8.120;2022-07-23T06:29:29;13.47;;;9.40;;
19043;SDS011;9654;52.302;8.120;2022-07-23T06:31:57;13.20;;;9.10;;
19043;SDS011;9654;52.302;8.120;2022-07-23T06:34:24;13.83;;;9.23;;
19043;SDS011;9654;52.302;8.120;2022-07-23T06:36:51;14.03;;;9.03;;
19043;SDS011;9654;52.302;8.120;2022-07-23T06:39:18;11.13;;;8.90;;
19043;SDS011;9654;52.302;8.120;2022-07-23T06:41:45;14.37;;;9.47;;
19043;SDS011;9654;52.302;8.120;2022-07-23T06:44:11;12.73;;;9.37;;
19043;SDS011;9654;52.302;8.120;2022-07-23T06:46:38;13.73;;;9.37;;
19043;SDS011;9654;52.302;8.120;2022-07-23T06:49:06;13.43;;;9.53;;
19043;SDS011;9654;52.302;8.120;2022-07-23T06:51:33;14.60;;;9.80;;
19043;SDS011;9654;52.302;8.120;2022-07-23T06:54:00;15.63;;;9.77;;
19043;SDS011;9654;52.302;8.120;2022-07-23T06:56:27;13.13;;;8.80;;
19043;SDS011;9654;52.302;8.120;2022-07-23T06:58:54;13.40;;;8.30;;
19043;SDS011;9654;52.302;8.120;2022-07-23T07:01:20;11.27;;;7.67;;
19043;SDS011;9654;52.302;8.120;2022-07-23T07:03:47;10.27;;;7.57;;
19043;SDS011;9654;52.302;8.120;2022-07-23T07:06:15;12.53;;;7.50;;
19043;SDS011;9654;52.302;8.120;2022-07-23T07:08:42;7.53;;;5.63;;
19043;SDS011;9654;52.302;8.120;2022-07-23T07:11:09;6.93;;;4.17;;
19043;SDS011;9654;52.302;8.120;2022-07-23T07:13:36;7.87;;;5.10;;
19043;SDS011;9654;52.302;8.120;2022-07-23T07:16:03;9.03;;;4.70;;
19043;SDS011;9654;52.302;8.120;2022-07-23T07:18:30;10.03;;;5.33;;
19043;SDS011;9654;52.302;8.120;2022-07-23T07:20:57;7.70;;;5.40;;
19043;SDS011;9654;52.302;8.120;2022-07-23T07:23:25;7.07;;;4.53;;
19043;SDS011;9654;52.302;8.120;2022-07-23T07:25:52;7.20;;;4.20;;
19043;SDS011;9654;52.302;8.120;2022-07-23T07:28:18;6.43;;;4.27;;
19043;SDS011;9654;52.302;8.120;2022-07-23T07:30:45;7.83;;;4.07;;
19043;SDS011;9654;52.302;8.120;2022-07-23T07:33:12;7.53;;;4.40;;
19043;SDS011;9654;52.302;8.120;2022-07-23T07:35:39;7.40;;;4.63;;
19043;SDS011;9654;52.302;8.120;2022-07-23T07:38:06;9.33;;;4.80;;
19043;SDS011;9654;52.302;8.120;2022-07-23T07:40:34;7.30;;;3.50;;
19043;SDS011;9654;52.302;8.120;2022-07-23T07:43:00;12.47;;;3.97;;
19043;SDS011;9654;52.302;8.120;2022-07-23T07:45:28;5.53;;;4.30;;
19043;SDS011;9654;52.302;8.120;2022-07-23T07:47:55;5.33;;;3.87;;
19043;SDS011;9654;52.302;8.120;2022-07-23T07:50:22;6.87;;;3.90;;
19043;SDS011;9654;52.302;8.120;2022-07-23T07:52:49;4.30;;;3.10;;
19043;SDS011;9654;52.302;8.120;2022-07-23T07:55:15;8.73;;;3.93;;
19043;SDS011;9654;52.302;8.120;2022-07-23T07:57:43;7.00;;;3.60;;
19043;SDS011;9654;52.302;8.120;2022-07-23T08:00:11;6.03;;;3.03;;
19043;SDS011;9654;52.302;8.120;2022-07-23T08:02:41;7.40;;;3.33;;
19043;SDS011;9654;52.302;8.120;2022-07-23T08:05:09;4.87;;;2.90;;
19043;SDS011;9654;52.302;8.120;2022-07-23T08:07:36;4.73;;;2.77;;
19043;SDS011;9654;52.302;8.120;2022-07-23T08:10:04;7.03;;;3.40;;
19043;SDS011;9654;52.302;8.120;2022-07-23T08:12:37;5.63;;;3.20;;
19043;SDS011;9654;52.302;8.120;2022-07-23T08:15:07;2.73;;;2.53;;
19043;SDS011;9654;52.302;8.120;2022-07-23T08:17:35;5.10;;;2.90;;
19043;SDS011;9654;52.302;8.120;2022-07-23T08:20:02;4.47;;;2.80;;
19043;SDS011;9654;52.302;8.120;2022-07-23T08:22:43;3.10;;;2.83;;
19043;SDS011;9654;52.302;8.120;2022-07-23T08:25:10;3.97;;;2.70;;
19043;SDS011;9654;52.302;8.120;2022-07-23T08:27:37;6.00;;;3.50;;
19043;SDS011;9654;52.302;8.120;2022-07-23T08:30:05;5.80;;;3.03;;
19043;SDS011;9654;52.302;8.120;2022-07-23T08:32:46;6.10;;;3.37;;
19043;SDS011;9654;52.302;8.120;2022-07-23T08:35:14;4.73;;;2.13;;
19043;SDS011;9654;52.302;8.120;2022-07-23T08:37:41;2.47;;;2.00;;
19043;SDS011;9654;52.302;8.120;2022-07-23T08:40:08;4.60;;;2.30;;
19043;SDS011;9654;52.302;8.120;2022-07-23T08:42:36;6.13;;;2.37;;
19043;SDS011;9654;52.302;8.120;2022-07-23T08:45:04;3.70;;;2.53;;
19043;SDS011;9654;52.302;8.120;2022-07-23T08:47:35;5.10;;;2.40;;
19043;SDS011;9654;52.302;8.120;2022-07-23T08:50:03;5.13;;;2.20;;
19043;SDS011;9654;52.302;8.120;2022-07-23T08:52:33;4.00;;;2.10;;
19043;SDS011;9654;52.302;8.120;2022-07-23T08:55:02;4.60;;;2.20;;
19043;SDS011;9654;52.302;8.120;2022-07-23T08:57:29;3.37;;;1.90;;
19043;SDS011;9654;52.302;8.120;2022-07-23T08:59:56;4.43;;;1.67;;
19043;SDS011;9654;52.302;8.120;2022-07-23T09:02:24;6.10;;;1.80;;
19043;SDS011;9654;52.302;8.120;2022-07-23T09:04:51;2.37;;;1.70;;
19043;SDS011;9654;52.302;8.120;2022-07-23T09:07:17;3.10;;;1.70;;
19043;SDS011;9654;52.302;8.120;2022-07-23T09:09:44;4.20;;;1.70;;
19043;SDS011;9654;52.302;8.120;2022-07-23T09:12:11;4.07;;;1.80;;
19043;SDS011;9654;52.302;8.120;2022-07-23T09:14:38;2.07;;;1.40;;
19043;SDS011;9654;52.302;8.120;2022-07-23T09:17:10;1.63;;;1.53;;
19043;SDS011;9654;52.302;8.120;2022-07-23T09:19:39;3.33;;;1.37;;
19043;SDS011;9654;52.302;8.120;2022-07-23T09:22:17;2.50;;;1.37;;
19043;SDS011;9654;52.302;8.120;2022-07-23T09:27:44;3.07;;;1.63;;
19043;SDS011;9654;52.302;8.120;2022-07-23T09:30:12;4.17;;;1.83;;
19043;SDS011;9654;52.302;8.120;2022-07-23T09:32:39;4.17;;;2.00;;
19043;SDS011;9654;52.302;8.120;2022-07-23T09:35:08;2.60;;;1.90;;
19043;SDS011;9654;52.302;8.120;2022-07-23T09:37:35;3.67;;;1.90;;
19043;SDS011;9654;52.302;8.120;2022-07-23T09:40:04;2.37;;;2.17;;
19043;SDS011;9654;52.302;8.120;2022-07-23T09:42:32;1.73;;;1.63;;
19043;SDS011;9654;52.302;8.120;2022-07-23T09:44:59;2.80;;;1.50;;
19043;SDS011;9654;52.302;8.120;2022-07-23T09:47:27;1.27;;;1.00;;
19043;SDS011;9654;52.302;8.120;2022-07-23T09:49:59;1.30;;;1.20;;
19043;SDS011;9654;52.302;8.120;2022-07-23T09:52:31;2.00;;;1.10;;
19043;SDS011;9654;52.302;8.120;2022-07-23T09:54:59;3.83;;;1.70;;
19043;SDS011;9654;52.302;8.120;2022-07-23T09:57:27;1.73;;;1.37;;
19043;SDS011;9654;52.302;8.120;2022-07-23T09:59:55;1.57;;;1.23;;
19043;SDS011;9654;52.302;8.120;2022-07-23T10:02:26;2.77;;;1.27;;
19043;SDS011;9654;52.302;8.120;2022-07-23T10:04:54;1.60;;;1.10;;
19043;SDS011;9654;52.302;8.120;2022-07-23T10:07:21;4.97;;;1.50;;
19043;SDS011;9654;52.302;8.120;2022-07-23T10:09:53;4.27;;;1.50;;
19043;SDS011;9654;52.302;8.120;2022-07-23T10:12:20;2.63;;;1.63;;
19043;SDS011;9654;52.302;8.120;2022-07-23T10:14:57;1.53;;;1.10;;
19043;SDS011;9654;52.302;8.120;2022-07-23T10:17:25;1.83;;;1.40;;
19043;SDS011;9654;52.302;8.120;2022-07-23T10:19:53;1.10;;;1.00;;
19043;SDS011;9654;52.302;8.120;2022-07-23T10:22:20;1.40;;;1.30;;
19043;SDS011;9654;52.302;8.120;2022-07-23T10:24:55;2.37;;;1.37;;
19043;SDS011;9654;52.302;8.120;2022-07-23T10:27:42;2.20;;;1.27;;
19043;SDS011;9654;52.302;8.120;2022-07-23T10:30:20;1.20;;;1.20;;
19043;SDS011;9654;52.302;8.120;2022-07-23T10:32:58;4.43;;;1.50;;
19043;SDS011;9654;52.302;8.120;2022-07-23T10:35:36;1.37;;;0.93;;
19043;SDS011;9654;52.302;8.120;2022-07-23T10:38:11;2.20;;;1.30;;
19043;SDS011;9654;52.302;8.120;2022-07-23T10:43:30;2.73;;;0.80;;
19043;SDS011;9654;52.302;8.120;2022-07-23T10:46:21;1.17;;;1.00;;
19043;SDS011;9654;52.302;8.120;2022-07-23T10:54:49;1.77;;;1.10;;
19043;SDS011;9654;52.302;8.120;2022-07-23T10:57:18;4.07;;;1.27;;
19043;SDS011;9654;52.302;8.120;2022-07-23T11:02:43;2.77;;;1.20;;
19043;SDS011;9654;52.302;8.120;2022-07-23T11:05:12;2.40;;;1.30;;
19043;SDS011;9654;52.302;8.120;2022-07-23T11:10:37;3.67;;;1.37;;
19043;SDS011;9654;52.302;8.120;2022-07-23T11:16:06;1.17;;;1.00;;
19043;SDS011;9654;52.302;8.120;2022-07-23T11:18:55;1.98;;;1.80;;
19043;SDS011;9654;52.302;8.120;2022-07-23T11:24:13;2.33;;;1.10;;
19043;SDS011;9654;52.302;8.120;2022-07-23T11:26:46;2.97;;;1.23;;
19043;SDS011;9654;52.302;8.120;2022-07-23T11:29:38;1.60;;;0.80;;
19043;SDS011;9654;52.302;8.120;2022-07-23T11:32:27;2.75;;;1.20;;
19043;SDS011;9654;52.302;8.120;2022-07-23T11:34:55;1.00;;;1.00;;
19043;SDS011;9654;52.302;8.120;2022-07-23T11:40:11;1.85;;;0.98;;
19043;SDS011;9654;52.302;8.120;2022-07-23T11:42:39;4.53;;;1.23;;
19043;SDS011;9654;52.302;8.120;2022-07-23T11:45:18;1.33;;;1.17;;
19043;SDS011;9654;52.302;8.120;2022-07-23T11:47:45;1.45;;;0.90;;
19043;SDS011;9654;52.302;8.120;2022-07-23T11:50:12;6.30;;;4.43;;
19043;SDS011;9654;52.302;8.120;2022-07-23T11:52:39;1.70;;;1.10;;
19043;SDS011;9654;52.302;8.120;2022-07-23T11:55:06;3.78;;;1.23;;
19043;SDS011;9654;52.302;8.120;2022-07-23T11:57:35;1.77;;;1.15;;
19043;SDS011;9654;52.302;8.120;2022-07-23T12:00:04;1.88;;;1.00;;
19043;SDS011;9654;52.302;8.120;2022-07-23T12:02:36;1.67;;;1.52;;
19043;SDS011;9654;52.302;8.120;2022-07-23T12:05:03;1.70;;;1.40;;
19043;SDS011;9654;52.302;8.120;2022-07-23T12:07:31;2.50;;;1.05;;
19043;SDS011;9654;52.302;8.120;2022-07-23T12:10:00;1.97;;;1.17;;
19043;SDS011;9654;52.302;8.120;2022-07-23T12:12:34;1.08;;;1.00;;
19043;SDS011;9654;52.302;8.120;2022-07-23T12:15:02;3.88;;;3.00;;
19043;SDS011;9654;52.302;8.120;2022-07-23T12:17:31;1.02;;;1.02;;
19043;SDS011;9654;52.302;8.120;2022-07-23T12:20:00;2.83;;;1.33;;
19043;SDS011;9654;52.302;8.120;2022-07-23T12:22:33;2.22;;;1.25;;
19043;SDS011;9654;52.302;8.120;2022-07-23T12:25:03;1.10;;;1.10;;
19043;SDS011;9654;52.302;8.120;2022-07-23T12:27:32;2.65;;;1.35;;
19043;SDS011;9654;52.302;8.120;2022-07-23T12:29:58;1.65;;;1.20;;
19043;SDS011;9654;52.302;8.120;2022-07-23T12:32:42;1.55;;;1.20;;
19043;SDS011;9654;52.302;8.120;2022-07-23T12:35:11;3.70;;;1.17;;
19043;SDS011;9654;52.302;8.120;2022-07-23T12:37:39;1.50;;;0.77;;
19043;SDS011;9654;52.302;8.120;2022-07-23T12:40:20;2.75;;;1.02;;
19043;SDS011;9654;52.302;8.120;2022-07-23T12:42:49;1.35;;;1.00;;
19043;SDS011;9654;52.302;8.120;2022-07-23T12:45:17;1.40;;;1.05;;
19043;SDS011;9654;52.302;8.120;2022-07-23T12:47:51;1.55;;;0.88;;
19043;SDS011;9654;52.302;8.120;2022-07-23T12:50:34;2.83;;;1.42;;
19043;SDS011;9654;52.302;8.120;2022-07-23T12:53:03;0.90;;;0.80;;
19043;SDS011;9654;52.302;8.120;2022-07-23T12:55:31;1.25;;;1.00;;
19043;SDS011;9654;52.302;8.120;2022-07-23T12:58:02;2.40;;;1.05;;
19043;SDS011;9654;52.302;8.120;2022-07-23T13:00:48;1.83;;;0.98;;
19043;SDS011;9654;52.302;8.120;2022-07-23T13:03:23;2.75;;;0.90;;
19043;SDS011;9654;52.302;8.120;2022-07-23T13:05:52;1.23;;;1.00;;
19043;SDS011;9654;52.302;8.120;2022-07-23T13:08:20;2.20;;;0.77;;
19043;SDS011;9654;52.302;8.120;2022-07-23T13:10:49;1.98;;;0.82;;
19043;SDS011;9654;52.302;8.120;2022-07-23T13:13:16;1.60;;;1.00;;
19043;SDS011;9654;52.302;8.120;2022-07-23T13:15:45;1.48;;;0.90;;
19043;SDS011;9654;52.302;8.120;2022-07-23T13:18:12;1.10;;;0.80;;
19043;SDS011;9654;52.302;8.120;2022-07-23T13:20:39;2.78;;;1.13;;
19043;SDS011;9654;52.302;8.120;2022-07-23T13:23:07;1.23;;;1.13;;
19043;SDS011;9654;52.302;8.120;2022-07-23T13:25:34;1.00;;;1.00;;
19043;SDS011;9654;52.302;8.120;2022-07-23T13:28:01;2.15;;;0.90;;
19043;SDS011;9654;52.302;8.120;2022-07-23T13:30:28;2.30;;;1.05;;
19043;SDS011;9654;52.302;8.120;2022-07-23T13:32:55;4.20;;;1.35;;
19043;SDS011;9654;52.302;8.120;2022-07-23T13:35:22;2.88;;;1.10;;
19043;SDS011;9654;52.302;8.120;2022-07-23T13:37:49;1.88;;;0.98;;
19043;SDS011;9654;52.302;8.120;2022-07-23T13:40:17;1.10;;;1.00;;
19043;SDS011;9654;52.302;8.120;2022-07-23T13:42:44;1.23;;;1.13;;
19043;SDS011;9654;52.302;8.120;2022-07-23T13:45:11;3.63;;;1.00;;
19043;SDS011;9654;52.302;8.120;2022-07-23T13:47:38;3.42;;;1.30;;
19043;SDS011;9654;52.302;8.120;2022-07-23T13:50:05;1.67;;;0.90;;
19043;SDS011;9654;52.302;8.120;2022-07-23T13:52:32;1.38;;;1.10;;
19043;SDS011;9654;52.302;8.120;2022-07-23T13:55:00;3.40;;;1.38;;
19043;SDS011;9654;52.302;8.120;2022-07-23T13:57:28;1.30;;;1.20;;
19043;SDS011;9654;52.302;8.120;2022-07-23T13:59:55;1.60;;;1.10;;
19043;SDS011;9654;52.302;8.120;2022-07-23T14:02:22;2.75;;;1.10;;
19043;SDS011;9654;52.302;8.120;2022-07-23T14:04:49;0.93;;;0.90;;
19043;SDS011;9654;52.302;8.120;2022-07-23T14:07:17;3.25;;;1.00;;
19043;SDS011;9654;52.302;8.120;2022-07-23T14:09:44;4.28;;;1.88;;
19043;SDS011;9654;52.302;8.120;2022-07-23T14:12:11;1.33;;;1.20;;
19043;SDS011;9654;52.302;8.120;2022-07-23T14:14:39;3.80;;;1.27;;
19043;SDS011;9654;52.302;8.120;2022-07-23T14:17:07;1.80;;;1.70;;
19043;SDS011;9654;52.302;8.120;2022-07-23T14:19:33;1.15;;;1.08;;
19043;SDS011;9654;52.302;8.120;2022-07-23T14:22:00;3.45;;;1.27;;
19043;SDS011;9654;52.302;8.120;2022-07-23T14:24:27;3.70;;;1.40;;
19043;SDS011;9654;52.302;8.120;2022-07-23T14:26:54;1.35;;;1.30;;
19043;SDS011;9654;52.302;8.120;2022-07-23T14:29:21;1.67;;;1.33;;
19043;SDS011;9654;52.302;8.120;2022-07-23T14:31:49;2.08;;;1.38;;
19043;SDS011;9654;52.302;8.120;2022-07-23T14:34:15;2.55;;;1.40;;
19043;SDS011;9654;52.302;8.120;2022-07-23T14:36:42;2.45;;;1.30;;
19043;SDS011;9654;52.302;8.120;2022-07-23T14:39:09;1.52;;;1.00;;
19043;SDS011;9654;52.302;8.120;2022-07-23T14:41:37;2.05;;;0.90;;
19043;SDS011;9654;52.302;8.120;2022-07-23T14:44:04;1.58;;;1.20;;
19043;SDS011;9654;52.302;8.120;2022-07-23T14:46:31;2.08;;;1.02;;
19043;SDS011;9654;52.302;8.120;2022-07-23T14:48:59;1.38;;;1.27;;
19043;SDS011;9654;52.302;8.120;2022-07-23T14:51:26;1.27;;;1.27;;
19043;SDS011;9654;52.302;8.120;2022-07-23T14:53:53;2.47;;;1.52;;
19043;SDS011;9654;52.302;8.120;2022-07-23T14:56:19;1.67;;;1.30;;
19043;SDS011;9654;52.302;8.120;2022-07-23T14:58:46;1.83;;;1.42;;
19043;SDS011;9654;52.302;8.120;2022-07-23T15:01:13;1.27;;;1.17;;
19043;SDS011;9654;52.302;8.120;2022-07-23T15:03:40;2.70;;;0.90;;
19043;SDS011;9654;52.302;8.120;2022-07-23T15:06:09;1.73;;;1.10;;
19043;SDS011;9654;52.302;8.120;2022-07-23T15:08:36;1.23;;;1.13;;
19043;SDS011;9654;52.302;8.120;2022-07-23T15:11:03;1.33;;;1.15;;
19043;SDS011;9654;52.302;8.120;2022-07-23T15:13:30;1.10;;;1.00;;
19043;SDS011;9654;52.302;8.120;2022-07-23T15:15:57;1.85;;;1.08;;
19043;SDS011;9654;52.302;8.120;2022-07-23T15:18:24;1.25;;;0.90;;
19043;SDS011;9654;52.302;8.120;2022-07-23T15:20:50;2.05;;;1.10;;
19043;SDS011;9654;52.302;8.120;2022-07-23T15:23:19;1.30;;;1.02;;
19043;SDS011;9654;52.302;8.120;2022-07-23T15:25:45;1.35;;;1.10;;
19043;SDS011;9654;52.302;8.120;2022-07-23T15:28:12;2.30;;;1.40;;